Time;durP1;ratioP1;P1;durP2;ratioP2;P2;SDS_P1;SDS_P2;PMS_P1;PMS_P2;Temp;Humidity;BMP_temperature;BMP_pressure;BME280_temperature;BME280_humidity;BME280_pressure;Samples;Min_cycle;Max_cycle;Signal;HPM_P1;HPM_P2
2022/06/28 00:00:33;;;;;;;1999.90;999.90;;;;;;;21.47;100.00;99629.63;5015235;28;20049;-53
2022/06/28 00:03:17;;;;;;;1999.90;999.90;;;;;;;21.37;100.00;99627.75;5017091;28;20120;-53
2022/06/28 00:06:02;;;;;;;1999.90;999.90;;;;;;;21.30;100.00;99623.81;5017035;28;20112;-54
2022/06/28 00:08:47;;;;;;;1999.90;999.90;;;;;;;21.36;100.00;99631.38;5015086;28;20057;-53
2022/06/28 00:11:36;;;;;;;1999.90;999.90;;;;;;;21.26;100.00;99630.31;5016417;28;20985;-53
2022/06/28 00:17:24;;;;;;;1999.90;999.90;;;;;;;21.19;100.00;99632.56;5016101;28;20558;-53
2022/06/28 00:20:09;;;;;;;1999.90;999.90;;;;;;;21.19;100.00;99638.75;5016086;28;20076;-52
2022/06/28 00:22:54;;;;;;;1999.90;999.90;;;;;;;21.19;100.00;99629.91;5016002;28;20873;-53
2022/06/28 00:25:39;;;;;;;1999.90;999.90;;;;;;;21.20;100.00;99626.28;5016024;28;20053;-53
2022/06/28 00:28:24;;;;;;;1999.90;999.90;;;;;;;21.11;100.00;99629.59;5013939;28;20076;-53
2022/06/28 00:31:08;;;;;;;1999.90;999.90;;;;;;;21.13;100.00;99619.69;5016490;28;20778;-53
2022/06/28 00:33:53;;;;;;;1999.90;999.90;;;;;;;21.02;100.00;99618.63;5015594;28;20057;-53
2022/06/28 00:36:37;;;;;;;1999.90;999.90;;;;;;;21.05;100.00;99625.56;5013704;28;20052;-52
2022/06/28 00:39:22;;;;;;;1999.90;999.90;;;;;;;20.92;100.00;99620.25;5014361;28;20422;-53
2022/06/28 00:42:10;;;;;;;1999.90;999.90;;;;;;;20.87;100.00;99614.41;5016712;28;20430;-52
2022/06/28 00:44:57;;;;;;;1999.90;999.90;;;;;;;20.86;100.00;99611.84;5017640;28;20045;-53
2022/06/28 00:47:42;;;;;;;1999.90;999.90;;;;;;;20.81;100.00;99609.53;5014186;28;20050;-53
2022/06/28 00:50:27;;;;;;;1999.90;999.90;;;;;;;20.83;100.00;99609.41;5014642;28;20037;-52
2022/06/28 00:53:14;;;;;;;1999.90;999.90;;;;;;;20.80;100.00;99598.97;5013657;28;20073;-52
2022/06/28 00:55:58;;;;;;;1999.90;999.90;;;;;;;20.71;100.00;99606.66;5014286;28;20057;-53
2022/06/28 00:58:42;;;;;;;1999.90;999.90;;;;;;;20.67;100.00;99606.97;5015614;28;20057;-52
2022/06/28 01:01:29;;;;;;;1999.90;999.90;;;;;;;20.72;100.00;99612.81;5013419;28;20049;-53
2022/06/28 01:04:15;;;;;;;1999.90;999.90;;;;;;;20.71;100.00;99621.78;5018574;28;20136;-53
2022/06/28 01:07:00;;;;;;;1999.90;999.90;;;;;;;20.62;100.00;99628.56;5024524;28;20050;-53
2022/06/28 01:09:47;;;;;;;1999.90;999.90;;;;;;;20.65;100.00;99639.00;5013890;28;20091;-53
2022/06/28 01:12:31;;;;;;;1999.90;999.90;;;;;;;20.43;100.00;99641.41;5012710;28;20389;-54
2022/06/28 01:15:15;;;;;;;1999.90;999.90;;;;;;;20.48;100.00;99648.13;5013799;28;20049;-53
2022/06/28 01:18:13;;;;;;;1999.90;999.90;;;;;;;20.46;100.00;99650.03;5020610;28;20038;-52
2022/06/28 01:21:02;;;;;;;1999.90;999.90;;;;;;;20.40;100.00;99645.13;5016558;28;20431;-53
2022/06/28 01:23:55;;;;;;;1999.90;999.90;;;;;;;20.41;100.00;99644.19;5021198;28;20392;-54
2022/06/28 01:26:53;;;;;;;1999.90;999.90;;;;;;;20.44;100.00;99643.09;5018503;28;20065;-52
2022/06/28 01:29:38;;;;;;;1999.90;999.90;;;;;;;20.37;100.00;99636.50;5017322;28;20056;-52
2022/06/28 01:32:46;;;;;;;1999.90;999.90;;;;;;;20.33;100.00;99635.88;5018124;28;20107;-52
2022/06/28 01:35:32;;;;;;;1999.90;999.90;;;;;;;20.20;100.00;99624.38;5023191;28;20042;-51
2022/06/28 01:38:17;;;;;;;1999.90;999.90;;;;;;;20.20;100.00;99635.00;5017897;28;20038;-52
2022/06/28 01:41:02;;;;;;;1999.90;999.90;;;;;;;20.22;100.00;99635.75;5017522;28;20037;-51
2022/06/28 01:43:47;;;;;;;1999.90;999.90;;;;;;;20.22;100.00;99636.59;5019839;28;20485;-52
2022/06/28 01:46:34;;;;;;;1999.90;999.90;;;;;;;20.24;100.00;99639.16;5017240;28;20038;-53
2022/06/28 01:49:22;;;;;;;1999.90;999.90;;;;;;;20.20;100.00;99635.00;5020434;28;20041;-51
2022/06/28 01:52:07;;;;;;;1999.90;999.90;;;;;;;20.07;100.00;99633.16;5015743;28;20042;-52
2022/06/28 01:54:52;;;;;;;1999.90;999.90;;;;;;;20.11;100.00;99633.81;5019884;28;20719;-52
2022/06/28 01:57:38;;;;;;;1999.90;999.90;;;;;;;20.11;100.00;99631.13;5017717;28;20831;-53
2022/06/28 02:00:23;;;;;;;1999.90;999.90;;;;;;;20.07;100.00;99627.84;5017310;28;20049;-51
2022/06/28 02:03:11;;;;;;;1999.90;999.90;;;;;;;20.05;100.00;99626.22;5018574;28;20050;-52
2022/06/28 02:06:16;;;;;;;1999.90;999.90;;;;;;;20.05;100.00;99621.78;5016779;28;20643;-53
2022/06/28 02:09:02;;;;;;;1999.90;999.90;;;;;;;20.03;100.00;99618.38;5016494;28;20049;-52
2022/06/28 02:11:56;;;;;;;1999.90;999.90;;;;;;;20.02;100.00;99629.13;5020608;28;20049;-51
2022/06/28 02:14:46;;;;;;;1999.90;999.90;;;;;;;20.04;100.00;99621.88;5016453;28;20045;-53
2022/06/28 02:17:30;;;;;;;1999.90;999.90;;;;;;;20.10;100.00;99631.25;5014346;28;20042;-52
2022/06/28 02:20:15;;;;;;;1999.90;999.90;;;;;;;20.05;100.00;99650.16;5015624;28;20511;-52
2022/06/28 02:23:01;;;;;;;1999.90;999.90;;;;;;;19.98;100.00;99655.03;5013647;28;20481;-52
2022/06/28 02:25:46;;;;;;;1999.90;999.90;;;;;;;20.08;100.00;99645.50;5016571;28;20677;-52
2022/06/28 02:28:30;;;;;;;1999.90;999.90;;;;;;;20.06;100.00;99673.16;5017610;28;20484;-51
2022/06/28 02:31:15;;;;;;;1999.90;999.90;;;;;;;20.06;100.00;99670.50;5013910;28;20050;-52
2022/06/28 02:34:00;;;;;;;1999.90;999.90;;;;;;;20.00;100.00;99668.22;5016247;28;20041;-52
2022/06/28 02:42:55;;;;;;;;;;;;;;;19.90;100.00;99685.75;5013953;28;20046;-53
2022/06/28 02:45:42;;;;;;;1999.90;999.90;;;;;;;20.01;100.00;99688.53;5012183;28;19948;-51
2022/06/28 02:48:26;;;;;;;1999.90;999.90;;;;;;;20.06;100.00;99705.91;5015329;28;20046;-53
2022/06/28 02:51:11;;;;;;;1999.90;999.90;;;;;;;20.07;100.00;99690.78;5018665;28;20049;-53
2022/06/28 02:53:55;;;;;;;1999.90;999.90;;;;;;;20.06;100.00;99692.59;5031179;28;20052;-53
2022/06/28 02:56:41;;;;;;;1999.90;999.90;;;;;;;20.17;100.00;99696.34;5015045;28;20049;-52
2022/06/28 02:59:26;;;;;;;1999.90;999.90;;;;;;;20.20;100.00;99694.34;5018212;28;20050;-52
2022/06/28 03:02:11;;;;;;;1999.90;999.90;;;;;;;20.21;100.00;99695.19;5016845;28;20045;-53
2022/06/28 03:04:56;;;;;;;1999.90;999.90;;;;;;;20.19;100.00;99697.13;5015136;28;20050;-52
2022/06/28 03:07:42;;;;;;;1999.90;999.90;;;;;;;20.29;100.00;99703.53;5019308;28;20069;-51
2022/06/28 03:10:27;;;;;;;1999.90;999.90;;;;;;;20.39;100.00;99715.25;5015615;28;20042;-52
2022/06/28 03:13:11;;;;;;;1999.90;999.90;;;;;;;20.36;100.00;99711.94;5015098;28;20046;-52
2022/06/28 03:15:55;;;;;;;1999.90;999.90;;;;;;;20.45;100.00;99721.97;5015044;28;20436;-52
2022/06/28 03:18:40;;;;;;;1999.90;999.90;;;;;;;20.46;100.00;99718.34;5015779;28;20045;-52
2022/06/28 03:21:24;;;;;;;1999.90;999.90;;;;;;;20.43;100.00;99718.53;5013793;28;20045;-52
2022/06/28 03:24:09;;;;;;;1999.90;999.90;;;;;;;20.44;100.00;99723.78;5020657;28;20551;-52
2022/06/28 03:26:54;;;;;;;1999.90;999.90;;;;;;;20.38;100.00;99729.50;5015632;28;20053;-52
2022/06/28 03:29:39;;;;;;;1999.90;999.90;;;;;;;20.37;100.00;99727.78;5019727;28;20050;-52
2022/06/28 03:32:27;;;;;;;1999.90;999.90;;;;;;;20.45;100.00;99721.97;5021560;28;20703;-51
2022/06/28 03:35:12;;;;;;;1999.90;999.90;;;;;;;20.60;100.00;99706.78;5015336;28;20049;-53
2022/06/28 03:37:57;;;;;;;1999.90;999.90;;;;;;;20.52;100.00;99720.63;5015690;28;20684;-52
2022/06/28 03:40:54;;;;;;;1999.90;999.90;;;;;;;20.55;100.00;99715.09;5019148;28;20042;-54
2022/06/28 03:43:38;;;;;;;1999.90;999.90;;;;;;;20.61;100.00;99705.84;5011673;28;20050;-54
2022/06/28 03:46:22;;;;;;;1999.90;999.90;;;;;;;20.69;100.00;99707.00;5025834;28;20038;-53
2022/06/28 03:49:18;;;;;;;1999.90;999.90;;;;;;;20.72;100.00;99714.78;5025778;28;20042;-52
2022/06/28 03:52:10;;;;;;;1999.90;999.90;;;;;;;20.75;100.00;99706.59;5017127;28;20057;-54
2022/06/28 03:55:11;;;;;;;1999.90;999.90;;;;;;;20.83;100.00;99722.06;5019844;28;20488;-53
2022/06/28 03:58:05;;;;;;;1999.90;999.90;;;;;;;20.86;100.00;99724.47;5020328;28;20053;-54
2022/06/28 04:00:49;;;;;;;1999.90;999.90;;;;;;;20.99;100.00;99728.03;5017861;28;20530;-53
2022/06/28 04:03:36;;;;;;;1999.90;999.90;;;;;;;20.89;100.00;99734.91;5016549;28;20049;-53
2022/06/28 04:06:21;;;;;;;1999.90;999.90;;;;;;;21.07;100.00;99734.63;5017352;28;20050;-52
2022/06/28 04:09:06;;;;;;;1999.90;999.90;;;;;;;21.32;100.00;99731.06;5015486;28;20050;-53
2022/06/28 04:11:50;;;;;;;1999.90;999.90;;;;;;;21.45;100.00;99743.47;5013840;28;20046;-53
2022/06/28 04:14:35;;;;;;;1999.90;999.90;;;;;;;21.70;100.00;99741.69;5017824;28;20213;-54
2022/06/28 04:17:21;;;;;;;1999.90;999.90;;;;;;;21.94;100.00;99741.72;5014632;28;20045;-54
2022/06/28 04:20:26;;;;;;;1999.90;999.90;;;;;;;22.04;100.00;99742.75;5012163;28;20076;-53
2022/06/28 04:23:19;;;;;;;1999.90;999.90;;;;;;;22.06;100.00;99737.28;5014992;28;20045;-53
2022/06/28 04:26:05;;;;;;;1999.90;999.90;;;;;;;22.13;100.00;99755.41;5017420;28;20049;-53
2022/06/28 04:29:01;;;;;;;1999.90;999.90;;;;;;;22.26;100.00;99755.41;5013323;28;20424;-55
2022/06/28 04:31:47;;;;;;;1999.90;999.90;;;;;;;22.28;100.00;99737.44;5013117;28;20057;-55
2022/06/28 04:34:32;;;;;;;1999.90;999.90;;;;;;;22.56;100.00;99738.88;5000956;28;20042;-54
2022/06/28 04:37:18;;;;;;;1999.90;999.90;;;;;;;22.52;100.00;99731.22;5016255;28;20483;-54
2022/06/28 04:40:05;;;;;;;1999.90;999.90;;;;;;;22.58;100.00;99739.59;5025684;28;20548;-53
2022/06/28 04:42:59;;;;;;;1999.90;999.90;;;;;;;22.74;100.00;99747.28;5015089;28;20046;-53
2022/06/28 04:45:43;;;;;;;1999.90;999.90;;;;;;;22.85;100.00;99763.34;5025296;28;20054;-53
2022/06/28 04:48:30;;;;;;;1999.90;999.90;;;;;;;22.97;100.00;99771.41;5016770;28;20045;-54
2022/06/28 04:51:15;;;;;;;1999.90;999.90;;;;;;;22.96;100.00;99765.22;5012509;28;20057;-54
2022/06/28 04:54:01;;;;;;;1999.90;999.90;;;;;;;22.91;100.00;99764.72;5025697;28;20072;-54
2022/06/28 04:56:50;;;;;;;1999.90;999.90;;;;;;;23.00;100.00;99769.34;5009313;28;20753;-54
2022/06/28 04:59:34;;;;;;;1999.90;999.90;;;;;;;22.86;100.00;99765.06;5012900;28;20528;-53
2022/06/28 05:02:23;;;;;;;1999.90;999.90;;;;;;;22.98;100.00;99731.25;5016275;28;20037;-54
2022/06/28 05:05:09;;;;;;;1999.90;999.90;;;;;;;22.81;100.00;99726.31;5026980;28;20053;-54
2022/06/28 05:07:57;;;;;;;1999.90;999.90;;;;;;;22.74;100.00;99715.25;5018997;28;20049;-54
2022/06/28 05:10:47;;;;;;;1999.90;999.90;;;;;;;22.79;100.00;99730.94;5014627;28;20030;-53
2022/06/28 05:13:44;;;;;;;1999.90;999.90;;;;;;;22.89;100.00;99739.09;5013041;28;20049;-53
2022/06/28 05:16:31;;;;;;;1999.90;999.90;;;;;;;22.81;100.00;99747.69;5028265;28;20033;-53
2022/06/28 05:19:16;;;;;;;1999.90;999.90;;;;;;;22.70;100.00;99747.66;5030402;28;20045;-55
2022/06/28 05:22:01;;;;;;;1999.90;999.90;;;;;;;22.83;100.00;99757.28;5016913;28;20065;-54
2022/06/28 05:24:45;;;;;;;1999.90;999.90;;;;;;;22.80;100.00;99770.84;5016500;28;20050;-53
2022/06/28 05:27:30;;;;;;;1999.90;999.90;;;;;;;22.71;100.00;99771.56;5020141;28;20092;-53
2022/06/28 05:30:14;;;;;;;1999.90;999.90;;;;;;;22.83;100.00;99788.47;5019015;28;20881;-53
2022/06/28 05:33:01;;;;;;;1999.90;999.90;;;;;;;22.96;100.00;99793.75;5020059;28;20045;-53
2022/06/28 05:35:45;;;;;;;1999.90;999.90;;;;;;;22.92;100.00;99787.78;5013320;28;20054;-53
2022/06/28 05:38:31;;;;;;;1999.90;999.90;;;;;;;22.72;100.00;99777.78;5021341;28;20046;-54
2022/06/28 05:41:15;;;;;;;1999.90;999.90;;;;;;;22.84;100.00;99782.16;5013512;28;20037;-54
2022/06/28 05:44:00;;;;;;;1999.90;999.90;;;;;;;22.78;100.00;99772.81;5012187;28;20050;-54
2022/06/28 05:46:45;;;;;;;1999.90;999.90;;;;;;;22.91;100.00;99769.19;5013053;28;20049;-53
2022/06/28 05:49:29;;;;;;;1999.90;999.90;;;;;;;22.69;100.00;99778.00;5012149;28;20053;-54
2022/06/28 05:52:14;;;;;;;1999.90;999.90;;;;;;;22.64;100.00;99779.19;5018383;28;20049;-54
2022/06/28 05:54:58;;;;;;;1999.90;999.90;;;;;;;22.63;100.00;99781.97;5017467;28;20137;-54
2022/06/28 05:57:43;;;;;;;1999.90;999.90;;;;;;;22.71;100.00;99787.56;5013238;28;20042;-54
2022/06/28 06:00:27;;;;;;;1999.90;999.90;;;;;;;22.82;100.00;99794.78;5015366;28;20053;-54
2022/06/28 06:03:12;;;;;;;1999.90;999.90;;;;;;;22.91;100.00;99786.06;5015766;28;20123;-53
2022/06/28 06:05:57;;;;;;;1999.90;999.90;;;;;;;23.04;100.00;99788.66;5030521;28;20046;-54
2022/06/28 06:08:41;;;;;;;1999.90;999.90;;;;;;;23.20;100.00;99791.84;5017673;28;20053;-54
2022/06/28 06:11:26;;;;;;;1999.90;999.90;;;;;;;23.28;100.00;99792.13;5018648;28;20065;-54
2022/06/28 06:14:11;;;;;;;1999.90;999.90;;;;;;;23.48;100.00;99793.22;5021898;28;20069;-54
2022/06/28 06:16:55;;;;;;;1999.90;999.90;;;;;;;23.72;100.00;99792.25;5020673;28;20069;-54
2022/06/28 06:19:40;;;;;;;1999.90;999.90;;;;;;;24.62;100.00;99802.78;5026573;28;20484;-53
2022/06/28 06:22:25;;;;;;;1999.90;999.90;;;;;;;24.96;100.00;99798.13;5017207;28;20054;-53
2022/06/28 06:25:13;;;;;;;1999.90;999.90;;;;;;;25.28;100.00;99792.69;5016078;28;20054;-54
2022/06/28 06:28:01;;;;;;;1999.90;999.90;;;;;;;25.29;100.00;99793.56;5005472;28;20045;-54
2022/06/28 06:30:46;;;;;;;1999.90;999.90;;;;;;;25.13;100.00;99794.03;5022262;28;20049;-54
2022/06/28 06:33:35;;;;;;;1999.90;999.90;;;;;;;25.37;100.00;99805.28;5029556;28;20049;-54
2022/06/28 06:36:52;;;;;;;1999.90;999.90;;;;;;;25.46;100.00;99797.44;4990661;28;20045;-54
2022/06/28 06:39:37;;;;;;;1999.90;999.90;;;;;;;25.69;100.00;99804.31;5023302;28;20057;-54
2022/06/28 06:42:22;;;;;;;1999.90;999.90;;;;;;;25.49;100.00;99816.78;5021486;28;20046;-54
2022/06/28 06:45:10;;;;;;;1999.90;999.90;;;;;;;25.13;100.00;99820.81;5016946;28;20129;-54
2022/06/28 06:47:54;;;;;;;1999.90;999.90;;;;;;;24.92;100.00;99820.78;5018530;28;20053;-54
2022/06/28 06:50:39;;;;;;;1999.90;999.90;;;;;;;24.99;100.00;99827.31;5016466;28;20068;-54
2022/06/28 06:53:24;;;;;;;1999.90;999.90;;;;;;;24.93;100.00;99831.38;5014908;28;20513;-54
2022/06/28 06:56:10;;;;;;;1999.90;999.90;;;;;;;25.20;100.00;99835.38;5014942;28;20046;-54
2022/06/28 06:58:56;;;;;;;1999.90;999.90;;;;;;;25.29;100.00;99834.59;5016400;28;20061;-55
2022/06/28 07:01:40;;;;;;;1999.90;999.90;;;;;;;25.78;100.00;99835.69;5015479;28;20041;-55
2022/06/28 07:04:26;;;;;;;1999.90;999.90;;;;;;;25.42;100.00;99845.13;5016900;28;20045;-54
2022/06/28 07:07:12;;;;;;;1999.90;999.90;;;;;;;25.56;100.00;99850.13;5019472;28;20646;-55
2022/06/28 07:09:58;;;;;;;1999.90;999.90;;;;;;;25.81;100.00;99861.44;5016615;28;20058;-55
2022/06/28 07:12:43;;;;;;;1999.90;999.90;;;;;;;25.74;100.00;99854.84;5031561;28;20045;-54
2022/06/28 07:15:32;;;;;;;1999.90;999.90;;;;;;;25.91;100.00;99853.44;5017937;28;20053;-54
2022/06/28 07:18:16;;;;;;;1999.90;999.90;;;;;;;25.70;100.00;99856.97;5021340;28;20136;-55
2022/06/28 07:21:01;;;;;;;1999.90;999.90;;;;;;;25.47;100.00;99867.00;5021208;28;20037;-55
2022/06/28 07:23:46;;;;;;;1999.90;999.90;;;;;;;25.27;100.00;99874.06;5019396;28;20042;-55
2022/06/28 07:26:37;;;;;;;1999.90;999.90;;;;;;;24.89;100.00;99885.31;5031291;28;20460;-55
2022/06/28 07:29:21;;;;;;;1999.90;999.90;;;;;;;24.68;100.00;99878.09;5016728;28;20443;-54
2022/06/28 07:32:08;;;;;;;1999.90;999.90;;;;;;;24.57;100.00;99874.59;5017352;28;20057;-54
2022/06/28 07:34:52;;;;;;;1999.90;999.90;;;;;;;24.66;100.00;99890.75;5023589;28;20072;-55
2022/06/28 07:37:37;;;;;;;1999.90;999.90;;;;;;;24.84;100.00;99892.91;5015973;28;20037;-54
2022/06/28 07:40:24;;;;;;;1999.90;999.90;;;;;;;24.74;100.00;99898.16;5017664;28;20050;-54
2022/06/28 07:43:34;;;;;;;1999.90;999.90;;;;;;;25.26;100.00;99909.06;5014144;28;21110;-54
2022/06/28 07:46:26;;;;;;;1999.90;999.90;;;;;;;25.50;100.00;99908.78;5016722;28;20053;-54
2022/06/28 07:49:12;;;;;;;1999.90;999.90;;;;;;;25.62;100.00;99899.69;5011606;28;20042;-54
2022/06/28 07:55:00;;;;;;;1999.90;999.90;;;;;;;25.34;100.00;99922.66;5013489;28;20115;-55
2022/06/28 07:58:17;;;;;;;1999.90;999.90;;;;;;;26.11;97.53;99930.31;5006231;28;20050;-55
2022/06/28 08:01:02;;;;;;;1999.90;999.90;;;;;;;26.86;94.05;99925.47;5012687;28;20069;-55
2022/06/28 08:03:47;;;;;;;1999.90;999.90;;;;;;;27.14;95.52;99913.91;5012763;28;20041;-55
2022/06/28 08:06:31;;;;;;;1999.90;999.90;;;;;;;26.79;93.10;99919.78;5013136;28;20041;-55
2022/06/28 08:09:17;;;;;;;1999.90;999.90;;;;;;;28.04;88.60;99923.34;5019481;28;20057;-56
2022/06/28 08:12:06;;;;;;;1999.90;999.90;;;;;;;26.81;94.48;99931.22;5018987;28;20487;-55
2022/06/28 08:14:50;;;;;;;1999.90;999.90;;;;;;;26.92;94.91;99938.34;5017662;28;20053;-55
2022/06/28 08:17:35;;;;;;;1999.90;999.90;;;;;;;26.54;94.33;99938.09;5013057;28;20060;-55
2022/06/28 08:20:19;;;;;;;1999.90;999.90;;;;;;;26.20;99.23;99939.41;5017856;28;20388;-56
2022/06/28 08:23:04;;;;;;;1999.90;999.90;;;;;;;26.00;97.60;99931.28;5013610;28;21327;-55
2022/06/28 08:25:49;;;;;;;1999.90;999.90;;;;;;;26.40;98.17;99927.75;5014417;28;20598;-55
2022/06/28 08:28:34;;;;;;;1999.90;999.90;;;;;;;26.96;90.90;99929.84;5014181;28;20053;-56
2022/06/28 08:31:18;;;;;;;1999.90;999.90;;;;;;;26.83;90.09;99923.88;5015690;28;20053;-55
2022/06/28 08:34:05;;;;;;;1999.90;999.90;;;;;;;26.79;88.96;99927.84;5017905;28;20050;-55
2022/06/28 08:36:50;;;;;;;1999.90;999.90;;;;;;;27.26;87.52;99917.28;5016148;28;20041;-56
2022/06/28 08:39:35;;;;;;;1999.90;999.90;;;;;;;26.95;90.70;99917.41;5018647;28;20050;-55
2022/06/28 08:42:26;;;;;;;1999.90;999.90;;;;;;;27.58;87.58;99921.47;5014720;28;20046;-55
2022/06/28 08:45:11;;;;;;;1999.90;999.90;;;;;;;28.36;83.87;99925.59;5014211;28;20037;-55
2022/06/28 08:47:56;;;;;;;1999.90;999.90;;;;;;;28.09;80.01;99934.53;5016993;28;20412;-56
2022/06/28 08:50:45;;;;;;;1999.90;999.90;;;;;;;27.71;82.96;99944.38;5016867;28;20045;-56
2022/06/28 08:53:31;;;;;;;1999.90;999.90;;;;;;;27.52;86.17;99944.41;5017206;28;20449;-55
2022/06/28 08:56:16;;;;;;;1999.90;999.90;;;;;;;26.50;88.23;99942.06;5017759;28;20443;-56
2022/06/28 08:59:01;;;;;;;1999.90;999.90;;;;;;;26.68;89.25;99957.50;5013955;28;20136;-56
2022/06/28 09:01:46;;;;;;;1999.90;999.90;;;;;;;26.56;88.55;99951.41;5017412;28;20057;-56
2022/06/28 09:04:31;;;;;;;1999.90;999.90;;;;;;;26.98;88.90;99949.38;5016342;28;20049;-56
2022/06/28 09:07:16;;;;;;;1999.90;999.90;;;;;;;26.31;90.15;99956.25;5014848;28;20389;-56
2022/06/28 09:10:01;;;;;;;1999.90;999.90;;;;;;;25.97;91.91;99961.06;5015770;28;20411;-55
2022/06/28 09:12:54;;;;;;;1999.90;999.90;;;;;;;25.94;93.74;99961.31;5019682;28;20363;-57
2022/06/28 09:15:48;;;;;;;1999.90;999.90;;;;;;;25.96;94.46;99967.38;5017969;28;20042;-56
2022/06/28 09:18:36;;;;;;;1999.90;999.90;;;;;;;26.62;94.20;99971.47;5016601;28;20053;-56
2022/06/28 09:21:20;;;;;;;1999.90;999.90;;;;;;;26.47;94.49;99963.78;5013665;28;20053;-55
2022/06/28 09:24:05;;;;;;;1999.90;999.90;;;;;;;26.61;94.46;99967.09;5012785;28;20046;-56
2022/06/28 09:26:54;;;;;;;1999.90;999.90;;;;;;;26.40;95.64;99973.38;5016019;28;20038;-56
2022/06/28 09:29:49;;;;;;;1999.90;999.90;;;;;;;26.05;93.82;99965.75;5018502;28;20564;-56
2022/06/28 09:32:36;;;;;;;1999.90;999.90;;;;;;;25.90;97.37;99962.53;5016418;28;20073;-56
2022/06/28 09:35:24;;;;;;;1999.90;999.90;;;;;;;26.42;97.98;99967.84;5015253;28;20558;-57
2022/06/28 09:38:08;;;;;;;1999.90;999.90;;;;;;;26.40;93.85;99972.53;5019273;28;20072;-56
2022/06/28 09:40:53;;;;;;;1999.90;999.90;;;;;;;25.86;96.34;99963.78;5020902;28;20049;-57
2022/06/28 09:43:37;;;;;;;1999.90;999.90;;;;;;;26.08;100.00;99977.06;5022425;28;20045;-56
2022/06/28 09:46:26;;;;;;;1999.90;999.90;;;;;;;25.58;100.00;99986.75;5019470;28;20057;-56
2022/06/28 09:49:12;;;;;;;1999.90;999.90;;;;;;;25.36;100.00;99990.38;5021062;28;20046;-55
2022/06/28 09:51:59;;;;;;;1999.90;999.90;;;;;;;25.67;100.00;99985.09;5014056;28;20058;-54
2022/06/28 09:54:46;;;;;;;1999.90;999.90;;;;;;;25.24;100.00;99981.53;5021722;28;20048;-55
2022/06/28 09:57:31;;;;;;;1999.90;999.90;;;;;;;25.05;100.00;99992.88;5022732;28;20665;-54
2022/06/28 10:00:20;;;;;;;1999.90;999.90;;;;;;;25.01;100.00;99998.63;5022582;28;20046;-55
2022/06/28 10:03:06;;;;;;;1999.90;999.90;;;;;;;24.58;100.00;99999.47;5022028;28;20045;-55
2022/06/28 10:05:51;;;;;;;1999.90;999.90;;;;;;;24.57;100.00;99998.63;5021543;28;20050;-55
2022/06/28 10:08:39;;;;;;;1999.90;999.90;;;;;;;24.59;100.00;100011.84;5020138;28;20412;-55
2022/06/28 10:11:24;;;;;;;1999.90;999.90;;;;;;;23.95;100.00;100023.09;5019252;28;20049;-55
2022/06/28 10:17:43;;;;;;;1999.90;999.90;;;;;;;22.67;100.00;100022.81;5017896;28;20428;-54
2022/06/28 10:20:34;;;;;;;1999.90;999.90;;;;;;;22.34;100.00;100030.44;5019084;28;20146;-53
2022/06/28 10:23:42;;;;;;;1999.90;999.90;;;;;;;22.47;100.00;100056.28;5015703;28;20050;-54
2022/06/28 10:26:26;;;;;;;1999.90;999.90;;;;;;;22.32;100.00;100056.38;5018890;28;20435;-54
2022/06/28 10:29:11;;;;;;;1999.90;999.90;;;;;;;21.98;100.00;100057.84;5023977;28;20050;-54
2022/06/28 10:31:56;;;;;;;1999.90;999.90;;;;;;;21.36;100.00;100052.25;5019569;28;20661;-55
2022/06/28 10:34:51;;;;;;;1999.90;999.90;;;;;;;20.76;100.00;100058.72;5021893;28;20397;-57
2022/06/28 10:37:55;;;;;;;1999.90;999.90;;;;;;;20.52;100.00;100074.44;5023893;28;20444;-56
2022/06/28 10:40:47;;;;;;;1999.90;999.90;;;;;;;20.73;100.00;100078.44;5021357;28;20052;-54
2022/06/28 10:43:32;;;;;;;1999.90;999.90;;;;;;;20.47;100.00;100093.31;5020665;28;20046;-54
2022/06/28 10:46:16;;;;;;;1999.90;999.90;;;;;;;20.47;100.00;100101.31;5019153;28;20142;-54
2022/06/28 10:49:08;;;;;;;1999.90;999.90;;;;;;;20.75;100.00;100110.25;5021129;28;20527;-54
2022/06/28 10:52:23;;;;;;;1999.90;999.90;;;;;;;20.86;100.00;100109.56;5016562;28;20538;-53
2022/06/28 11:07:20;;;;;;;1999.90;999.90;;;;;;;20.83;100.00;100118.63;5077739;27;20420;-52
2022/06/28 11:10:14;;;;;;;1999.90;999.90;;;;;;;20.54;100.00;100121.28;5079845;28;20109;-53
2022/06/28 11:13:18;;;;;;;1999.90;999.90;;;;;;;20.51;100.00;100131.28;5078578;28;20490;-51
2022/06/28 11:16:03;;;;;;;1999.90;999.90;;;;;;;20.15;100.00;100135.16;5076313;28;20044;-52
2022/06/28 11:19:03;;;;;;;1999.90;999.90;;;;;;;20.04;100.00;100142.91;5064255;28;20183;-51
2022/06/28 11:21:48;;;;;;;1999.90;999.90;;;;;;;20.09;100.00;100130.22;5075321;28;20044;-52
2022/06/28 11:24:32;;;;;;;1999.90;999.90;;;;;;;20.31;100.00;100125.31;5076549;28;20164;-52
2022/06/28 11:27:21;;;;;;;1999.90;999.90;;;;;;;20.23;100.00;100129.38;5073177;28;20048;-52
2022/06/28 11:30:06;;;;;;;1999.90;999.90;;;;;;;20.50;100.00;100124.19;5080066;28;20048;-52
2022/06/28 11:32:53;;;;;;;1999.90;999.90;;;;;;;20.53;100.00;100132.84;5079105;28;20070;-51
2022/06/28 11:35:38;;;;;;;1999.90;999.90;;;;;;;20.60;100.00;100109.38;5077441;28;20044;-52
2022/06/28 11:38:22;;;;;;;1999.90;999.90;;;;;;;20.86;100.00;100126.41;5075927;28;20124;-52
2022/06/28 11:41:07;;;;;;;1999.90;999.90;;;;;;;20.97;100.00;100125.75;5081971;28;20467;-52
2022/06/28 11:43:59;;;;;;;1999.90;999.90;;;;;;;21.11;100.00;100132.84;5080577;28;20048;-52
2022/06/28 11:46:48;;;;;;;1999.90;999.90;;;;;;;20.94;100.00;100133.91;5079972;28;20127;-51
2022/06/28 11:49:36;;;;;;;1999.90;999.90;;;;;;;21.11;100.00;100135.50;5079421;28;20282;-51
2022/06/28 11:52:21;;;;;;;1999.90;999.90;;;;;;;21.17;100.00;100135.13;5081145;28;20625;-51
2022/06/28 11:55:06;;;;;;;1999.90;999.90;;;;;;;21.14;100.00;100140.66;5079613;28;20040;-51
2022/06/28 11:58:16;;;;;;;1999.90;999.90;;;;;;;21.34;100.00;100139.38;5079428;28;20052;-51
2022/06/28 12:01:21;;;;;;;1999.90;999.90;;;;;;;21.16;100.00;100141.41;5079340;28;20056;-52
2022/06/28 12:04:06;;;;;;;1999.90;999.90;;;;;;;21.27;100.00;100143.38;5079232;28;20048;-54
2022/06/28 12:06:51;;;;;;;1999.90;999.90;;;;;;;21.23;100.00;100142.72;5066055;28;20102;-51
2022/06/28 12:09:43;;;;;;;1999.90;999.90;;;;;;;21.17;100.00;100143.97;5066747;28;20049;-51
2022/06/28 12:12:29;;;;;;;1999.90;999.90;;;;;;;20.92;100.00;100147.31;5067066;28;20063;-52
2022/06/28 12:15:13;;;;;;;1999.90;999.90;;;;;;;21.11;100.00;100138.19;5063885;28;20374;-52
2022/06/28 12:18:06;;;;;;;1999.90;999.90;;;;;;;21.16;100.00;100136.94;5063465;28;20052;-51
2022/06/28 12:20:57;;;;;;;1999.90;999.90;;;;;;;21.13;100.00;100145.13;5066675;28;20127;-51
2022/06/28 12:23:49;;;;;;;1999.90;999.90;;;;;;;21.26;100.00;100139.88;5064679;28;20052;-52
2022/06/28 12:26:44;;;;;;;1999.90;999.90;;;;;;;21.39;100.00;100130.16;5063911;28;20370;-51
2022/06/28 12:29:28;;;;;;;1999.90;999.90;;;;;;;21.42;100.00;100129.13;5065170;28;20303;-51
2022/06/28 12:32:12;;;;;;;1999.90;999.90;;;;;;;21.59;100.00;100126.19;5063666;28;20131;-51
2022/06/28 12:35:06;;;;;;;1999.90;999.90;;;;;;;21.88;100.00;100116.25;5060587;28;20068;-52
2022/06/28 12:37:52;;;;;;;1999.90;999.90;;;;;;;22.01;100.00;100110.97;5059668;28;20399;-52
2022/06/28 12:40:37;;;;;;;1999.90;999.90;;;;;;;22.68;100.00;100108.13;5064608;28;20380;-51
2022/06/28 12:43:21;;;;;;;1999.90;999.90;;;;;;;22.85;100.00;100109.63;5064611;28;20549;-51